createdAt,value
2022-07-28T00:00:56.320Z,97600.19
2022-07-28T00:03:23.122Z,97603.16
2022-07-28T00:05:49.953Z,97602.13
2022-07-28T00:08:17.188Z,97613.56
2022-07-28T00:10:43.874Z,97602.97
2022-07-28T00:13:10.635Z,97599.31
2022-07-28T00:15:37.604Z,97609.41
2022-07-28T00:18:04.305Z,97599.75
2022-07-28T00:20:30.983Z,97597.72
2022-07-28T00:22:57.682Z,97599.06
2022-07-28T00:25:24.605Z,97599.47
2022-07-28T00:27:51.370Z,97597.09
2022-07-28T00:30:17.981Z,97594.91
2022-07-28T00:32:44.891Z,97603.41
2022-07-28T00:35:12.398Z,97600.91
2022-07-28T00:37:41.678Z,97596.59
2022-07-28T00:40:10.251Z,97602.97
2022-07-28T00:42:37.200Z,97604.13
2022-07-28T00:45:04.486Z,97607.50
2022-07-28T00:47:33.670Z,97602.44
2022-07-28T00:50:02.762Z,97596.75
2022-07-28T00:52:30.119Z,97598.56
2022-07-28T00:54:58.539Z,97598.63
2022-07-28T00:57:25.277Z,97596.94
2022-07-28T00:59:51.957Z,97601.38
2022-07-28T01:02:19.104Z,97604.16
2022-07-28T01:04:46.322Z,97602.84
2022-07-28T01:07:26.797Z,97608.50
2022-07-28T01:10:17.446Z,97597.94
2022-07-28T01:13:04.170Z,97606.09
2022-07-28T01:15:38.358Z,97601.75
2022-07-28T01:18:26.755Z,97597.50
2022-07-28T01:21:02.493Z,97591.66
2022-07-28T01:23:32.189Z,97593.34
2022-07-28T01:26:23.119Z,97587.44
2022-07-28T01:29:11.631Z,97596.41
2022-07-28T01:31:43.151Z,97585.22
2022-07-28T01:34:15.656Z,97589.28
2022-07-28T01:36:46.425Z,97586.66
2022-07-28T01:39:15.229Z,97593.34
2022-07-28T01:41:44.374Z,97592.28
2022-07-28T01:44:16.678Z,97594.56
2022-07-28T01:46:46.233Z,97592.19
2022-07-28T01:49:15.461Z,97591.25
2022-07-28T01:51:43.491Z,97587.91
2022-07-28T01:54:12.080Z,97577.50
2022-07-28T01:56:39.934Z,97585.38
2022-07-28T01:59:09.795Z,97588.34
2022-07-28T02:01:38.767Z,97590.16
2022-07-28T02:04:08.099Z,97593.78
2022-07-28T02:06:35.532Z,97587.56
2022-07-28T02:09:05.329Z,97591.72
2022-07-28T02:11:40.259Z,97589.47
2022-07-28T02:14:10.704Z,97583.50
2022-07-28T02:16:41.842Z,97583.69
2022-07-28T02:19:09.383Z,97584.41
2022-07-28T02:21:37.153Z,97589.72
2022-07-28T02:24:06.362Z,97587.72
2022-07-28T02:26:38.264Z,97587.78
2022-07-28T02:29:07.865Z,97580.03
2022-07-28T02:31:45.594Z,97574.97
2022-07-28T02:34:14.919Z,97569.66
2022-07-28T02:36:51.025Z,97572.84
2022-07-28T02:39:23.880Z,97573.31
2022-07-28T02:41:58.304Z,97574.28
2022-07-28T02:44:29.103Z,97577.31
2022-07-28T02:46:58.047Z,97581.38
2022-07-28T02:49:31.141Z,97578.03
2022-07-28T02:52:01.064Z,97578.34
2022-07-28T02:54:30.105Z,97579.25
2022-07-28T02:56:58.871Z,97580.94
2022-07-28T02:59:26.733Z,97575.94
2022-07-28T03:01:54.303Z,97574.13
2022-07-28T03:04:41.306Z,97578.78
2022-07-28T03:07:08.579Z,97576.06
2022-07-28T03:09:43.303Z,97586.09
2022-07-28T03:12:11.257Z,97584.34
2022-07-28T03:14:39.014Z,97589.25
2022-07-28T03:17:06.845Z,97592.31
2022-07-28T03:19:33.743Z,97592.25
2022-07-28T03:22:00.899Z,97594.31
2022-07-28T03:24:31.197Z,97594.06
2022-07-28T03:27:10.788Z,97599.31
2022-07-28T03:29:38.906Z,97593.94
2022-07-28T03:32:06.459Z,97603.97
2022-07-28T03:34:33.183Z,97603.81
2022-07-28T03:37:11.915Z,97604.69
2022-07-28T03:39:50.831Z,97614.91
2022-07-28T03:42:19.611Z,97614.53
2022-07-28T03:44:47.818Z,97611.53
2022-07-28T03:47:20.294Z,97621.91
2022-07-28T03:49:46.946Z,97618.28
2022-07-28T03:52:13.568Z,97623.06
2022-07-28T03:54:40.325Z,97617.91
2022-07-28T03:57:07.024Z,97614.91
2022-07-28T03:59:33.651Z,97626.97
2022-07-28T04:02:00.408Z,97622.16
2022-07-28T04:04:27.211Z,97621.19
2022-07-28T04:06:53.826Z,97625.34
2022-07-28T04:09:20.411Z,97620.59
2022-07-28T04:11:47.121Z,97629.00
2022-07-28T04:14:16.907Z,97633.69
2022-07-28T04:16:44.557Z,97625.41
2022-07-28T04:19:11.674Z,97628.81
2022-07-28T04:21:38.354Z,97634.44
2022-07-28T04:24:05.460Z,97636.44
2022-07-28T04:26:32.164Z,97637.44
2022-07-28T04:28:58.771Z,97640.91
2022-07-28T04:31:30.335Z,97650.19
2022-07-28T04:33:57.170Z,97643.41
2022-07-28T04:36:23.836Z,97658.47
2022-07-28T04:38:50.441Z,97663.28
2022-07-28T04:41:17.031Z,97655.91
2022-07-28T04:43:45.358Z,97652.25
2022-07-28T04:46:14.973Z,97655.25
2022-07-28T04:48:42.239Z,97654.00
2022-07-28T04:51:09.000Z,97652.84
2022-07-28T04:53:35.780Z,97646.47
2022-07-28T04:56:02.897Z,97655.31
2022-07-28T04:58:30.939Z,97661.31
2022-07-28T05:00:57.829Z,97663.34
2022-07-28T05:03:24.530Z,97654.69
2022-07-28T05:05:54.599Z,97653.91
2022-07-28T05:08:25.729Z,97660.41
2022-07-28T05:10:54.253Z,97664.72
2022-07-28T05:13:20.844Z,97666.50
2022-07-28T05:15:47.443Z,97675.59
2022-07-28T05:18:14.272Z,97674.81
2022-07-28T05:20:40.864Z,97683.72
2022-07-28T05:23:08.437Z,97681.97
2022-07-28T05:25:35.090Z,97680.88
2022-07-28T05:28:01.744Z,97683.84
2022-07-28T05:30:29.421Z,97681.38
2022-07-28T05:33:00.025Z,97690.19
2022-07-28T05:35:26.947Z,97687.72
2022-07-28T05:37:53.545Z,97686.06
2022-07-28T05:40:20.309Z,97690.03
2022-07-28T05:42:49.767Z,97677.66
2022-07-28T05:45:17.686Z,97683.63
2022-07-28T05:47:47.223Z,97688.88
2022-07-28T05:50:16.101Z,97682.34
2022-07-28T05:52:43.315Z,97688.66
2022-07-28T05:55:10.613Z,97683.63
2022-07-28T05:57:39.402Z,97692.25
2022-07-28T06:00:13.029Z,97697.50
2022-07-28T06:02:40.521Z,97691.59
2022-07-28T06:05:07.641Z,97687.41
2022-07-28T06:07:43.640Z,97685.31
2022-07-28T06:10:15.916Z,97692.69
2022-07-28T06:12:50.645Z,97686.97
2022-07-28T06:15:23.233Z,97681.09
2022-07-28T06:17:53.905Z,97692.03
2022-07-28T06:20:22.424Z,97690.75
2022-07-28T06:22:54.867Z,97684.22
2022-07-28T06:25:27.754Z,97688.19
2022-07-28T06:27:56.515Z,97688.63
2022-07-28T06:30:23.809Z,97686.53
2022-07-28T06:32:50.871Z,97679.63
2022-07-28T06:35:18.476Z,97684.75
2022-07-28T06:37:46.143Z,97687.72
2022-07-28T06:40:13.607Z,97695.13
2022-07-28T06:42:44.417Z,97694.41
2022-07-28T06:45:20.743Z,97694.56
2022-07-28T06:47:49.505Z,97689.69
2022-07-28T06:50:24.547Z,97696.66
2022-07-28T06:52:52.135Z,97692.44
2022-07-28T06:55:18.872Z,97697.59
2022-07-28T06:57:45.759Z,97698.50
2022-07-28T07:00:14.143Z,97699.59
2022-07-28T07:02:41.776Z,97697.56
2022-07-28T07:05:10.468Z,97700.09
2022-07-28T07:07:42.522Z,97698.28
2022-07-28T07:10:10.301Z,97696.47
2022-07-28T07:12:36.980Z,97702.25
2022-07-28T07:15:07.705Z,97701.66
2022-07-28T07:17:34.570Z,97695.41
2022-07-28T07:20:01.172Z,97698.97
2022-07-28T07:22:27.825Z,97700.75
2022-07-28T07:24:57.165Z,97695.00
2022-07-28T07:27:25.162Z,97699.84
2022-07-28T07:29:51.834Z,97702.63
2022-07-28T07:32:18.467Z,97699.28
2022-07-28T07:34:45.164Z,97699.94
2022-07-28T07:37:13.745Z,97694.31
2022-07-28T07:39:41.518Z,97694.75
2022-07-28T07:42:08.539Z,97694.84
2022-07-28T07:44:35.452Z,97689.22
2022-07-28T07:47:02.220Z,97690.56
2022-07-28T07:49:45.305Z,97692.22
2022-07-28T07:52:13.407Z,97696.28
2022-07-28T07:54:40.135Z,97696.41
2022-07-28T07:57:06.786Z,97702.41
2022-07-28T07:59:33.414Z,97690.00
2022-07-28T08:02:00.787Z,97692.38
2022-07-28T08:04:28.775Z,97695.47
2022-07-28T08:06:56.329Z,97692.25
2022-07-28T08:09:23.344Z,97690.44
2022-07-28T08:11:50.042Z,97688.16
2022-07-28T08:14:17.527Z,97683.69
2022-07-28T08:16:44.757Z,97689.09
2022-07-28T08:19:11.756Z,97681.91
2022-07-28T08:21:38.670Z,97692.09
2022-07-28T08:24:05.705Z,97693.50
2022-07-28T08:26:32.438Z,97685.97
2022-07-28T08:28:59.137Z,97688.97
2022-07-28T08:31:26.003Z,97682.03
2022-07-28T08:33:53.426Z,97677.81
2022-07-28T08:36:20.814Z,97677.34
2022-07-28T08:38:47.471Z,97681.44
2022-07-28T08:41:22.709Z,97677.75
2022-07-28T08:43:53.865Z,97681.66
2022-07-28T08:46:22.981Z,97680.94
2022-07-28T08:48:51.091Z,97674.22
2022-07-28T08:51:19.107Z,97665.00
2022-07-28T08:53:46.691Z,97670.03
2022-07-28T08:56:15.958Z,97670.72
2022-07-28T08:58:43.078Z,97668.16
2022-07-28T09:01:11.067Z,97672.97
2022-07-28T09:03:39.647Z,97670.66
2022-07-28T09:06:07.330Z,97675.44
2022-07-28T09:08:34.458Z,97679.50
2022-07-28T09:11:01.283Z,97672.78
2022-07-28T09:13:27.952Z,97676.38
2022-07-28T09:15:54.819Z,97671.03
2022-07-28T09:18:21.605Z,97663.34
2022-07-28T09:20:48.311Z,97675.66
2022-07-28T09:23:43.309Z,97676.09
2022-07-28T09:26:11.262Z,97672.91
2022-07-28T09:28:57.138Z,97669.66
2022-07-28T09:31:26.302Z,97671.28
2022-07-28T09:34:04.180Z,97657.91
2022-07-28T09:36:38.799Z,97652.94
2022-07-28T09:39:06.017Z,97654.72
2022-07-28T09:41:58.262Z,97659.91
2022-07-28T09:44:27.065Z,97652.78
2022-07-28T09:46:57.476Z,97652.16
2022-07-28T09:49:43.414Z,97649.47
2022-07-28T09:52:11.146Z,97645.59
2022-07-28T09:54:41.085Z,97650.19
2022-07-28T09:57:11.625Z,97647.78
2022-07-28T09:59:47.100Z,97645.31
2022-07-28T10:02:27.247Z,97642.78
2022-07-28T10:04:54.121Z,97641.38
2022-07-28T10:07:21.560Z,97641.69
2022-07-28T10:10:02.650Z,97631.06
2022-07-28T10:12:31.276Z,97627.94
2022-07-28T10:15:31.473Z,97630.63
2022-07-28T10:17:58.292Z,97626.16
2022-07-28T10:20:26.699Z,97623.41
2022-07-28T10:22:58.622Z,97624.94
2022-07-28T10:25:29.790Z,97615.63
2022-07-28T10:28:01.233Z,97613.84
2022-07-28T10:30:35.814Z,97610.94
2022-07-28T10:33:05.367Z,97609.03
2022-07-28T10:35:33.543Z,97612.22
2022-07-28T10:38:21.444Z,97612.22
2022-07-28T10:40:50.649Z,97605.47
2022-07-28T10:43:17.320Z,97612.59
2022-07-28T10:48:31.614Z,97601.06
2022-07-28T10:50:59.433Z,97605.13
2022-07-28T10:53:52.783Z,97601.94
2022-07-28T10:56:45.439Z,97603.81
2022-07-28T10:59:51.169Z,97593.22
2022-07-28T11:02:45.750Z,97592.66
2022-07-28T11:05:24.767Z,97589.88
2022-07-28T11:07:51.632Z,97589.94
2022-07-28T11:10:20.557Z,97585.28
2022-07-28T11:12:49.728Z,97587.22
2022-07-28T11:15:26.384Z,97577.19
2022-07-28T11:18:08.730Z,97579.84
2022-07-28T11:20:58.576Z,97578.25
2022-07-28T11:23:53.484Z,97581.34
2022-07-28T11:26:27.635Z,97583.00
2022-07-28T11:28:57.286Z,97578.91
2022-07-28T11:31:46.262Z,97571.13
2022-07-28T11:34:23.979Z,97581.94
2022-07-28T11:37:05.741Z,97575.00
2022-07-28T11:39:43.233Z,97577.13
2022-07-28T11:42:28.365Z,97565.59
2022-07-28T11:44:56.491Z,97568.63
2022-07-28T11:47:25.986Z,97569.16
2022-07-28T11:50:15.942Z,97571.06
2022-07-28T11:52:54.055Z,97569.91
2022-07-28T11:55:20.994Z,97560.00
2022-07-28T11:58:07.582Z,97568.03
2022-07-28T12:00:34.252Z,97555.56
2022-07-28T12:03:05.485Z,97548.16
2022-07-28T12:05:34.245Z,97553.38
2022-07-28T12:08:08.424Z,97553.66
2022-07-28T12:10:54.084Z,97558.34
2022-07-28T12:13:27.522Z,97552.41
2022-07-28T12:15:54.267Z,97543.72
2022-07-28T12:18:21.504Z,97541.25
2022-07-28T12:20:53.745Z,97537.31
2022-07-28T12:23:38.825Z,97532.31
2022-07-28T12:26:13.042Z,97520.13
2022-07-28T12:28:50.227Z,97525.06
2022-07-28T12:31:17.216Z,97529.69
2022-07-28T12:33:43.915Z,97529.53
2022-07-28T12:36:10.815Z,97510.13
2022-07-28T12:38:37.614Z,97516.28
2022-07-28T12:41:13.907Z,97517.53
2022-07-28T12:43:40.919Z,97528.13
2022-07-28T12:46:07.712Z,97518.97
2022-07-28T12:48:34.663Z,97522.47
2022-07-28T12:51:01.829Z,97520.13
2022-07-28T12:53:28.627Z,97520.31
2022-07-28T12:56:05.994Z,97519.53
2022-07-28T12:58:34.583Z,97513.25
2022-07-28T13:01:02.334Z,97509.91
2022-07-28T13:03:29.859Z,97507.56
2022-07-28T13:06:03.693Z,97503.13
2022-07-28T13:08:44.750Z,97498.19
2022-07-28T13:11:41.924Z,97502.53
2022-07-28T13:14:00.934Z,97495.81
2022-07-28T13:16:28.593Z,97491.00
2022-07-28T13:18:57.766Z,97484.28
2022-07-28T13:21:57.595Z,97487.97
2022-07-28T13:24:27.925Z,97482.16
2022-07-28T13:26:55.321Z,97484.63
2022-07-28T13:29:22.869Z,97480.13
2022-07-28T13:31:50.022Z,97476.56
2022-07-28T13:34:17.164Z,97479.63
2022-07-28T13:36:44.058Z,97475.75
2022-07-28T13:39:11.081Z,97467.25
2022-07-28T13:41:57.719Z,97461.53
2022-07-28T13:44:24.893Z,97466.00
2022-07-28T13:46:51.629Z,97461.06
2022-07-28T13:49:21.525Z,97455.97
2022-07-28T13:51:49.079Z,97455.94
2022-07-28T13:54:18.841Z,97446.03
2022-07-28T13:56:48.593Z,97448.81
2022-07-28T13:59:36.209Z,97451.06
2022-07-28T14:02:04.899Z,97442.72
2022-07-28T14:04:31.641Z,97449.41
2022-07-28T14:06:59.277Z,97443.50
2022-07-28T14:09:26.178Z,97440.16
2022-07-28T14:11:53.642Z,97437.72
2022-07-28T14:14:25.058Z,97437.88
2022-07-28T14:16:54.638Z,97432.53
2022-07-28T14:19:28.018Z,97440.03
2022-07-28T14:22:12.769Z,97446.19
2022-07-28T14:24:41.688Z,97436.31
2022-07-28T14:27:08.366Z,97431.47
2022-07-28T14:29:37.394Z,97435.00
2022-07-28T14:32:04.287Z,97434.28
2022-07-28T14:34:30.884Z,97438.16
2022-07-28T14:36:57.544Z,97429.78
2022-07-28T14:39:24.210Z,97428.69
2022-07-28T14:41:50.895Z,97423.38
2022-07-28T14:44:24.150Z,97419.84
2022-07-28T14:46:51.150Z,97418.13
2022-07-28T14:49:18.031Z,97417.06
2022-07-28T14:51:45.080Z,97419.22
2022-07-28T14:54:12.446Z,97414.13
2022-07-28T14:56:39.307Z,97401.31
2022-07-28T14:59:06.387Z,97409.84
2022-07-28T15:01:36.163Z,97412.94
2022-07-28T15:04:03.571Z,97409.84
2022-07-28T15:06:30.285Z,97394.81
2022-07-28T15:08:57.789Z,97397.97
2022-07-28T15:11:24.958Z,97397.81
2022-07-28T15:13:51.598Z,97394.66
2022-07-28T15:16:18.428Z,97388.03
2022-07-28T15:18:45.230Z,97378.75
2022-07-28T15:21:16.589Z,97380.78
2022-07-28T15:23:43.914Z,97383.56
2022-07-28T15:26:10.744Z,97381.78
2022-07-28T15:28:38.195Z,97382.94
2022-07-28T15:31:05.545Z,97382.41
2022-07-28T15:33:38.941Z,97383.47
2022-07-28T15:36:14.611Z,97382.53
2022-07-28T15:38:41.239Z,97374.28
2022-07-28T15:41:08.015Z,97379.63
2022-07-28T15:43:34.757Z,97379.47
2022-07-28T15:46:09.266Z,97382.59
2022-07-28T15:48:37.106Z,97372.56
2022-07-28T15:51:04.333Z,97378.03
2022-07-28T15:53:31.000Z,97378.81
2022-07-28T15:55:58.130Z,97372.25
2022-07-28T15:58:26.396Z,97375.94
2022-07-28T16:00:54.188Z,97370.78
2022-07-28T16:03:22.688Z,97379.34
2022-07-28T16:05:50.047Z,97380.47
2022-07-28T16:08:18.514Z,97375.13
2022-07-28T16:10:51.347Z,97368.22
2022-07-28T16:13:28.541Z,97377.97
2022-07-28T16:16:08.007Z,97366.63
2022-07-28T16:18:35.056Z,97362.13
2022-07-28T16:21:01.767Z,97366.66
2022-07-28T16:23:28.409Z,97364.09
2022-07-28T16:25:55.186Z,97363.16
2022-07-28T16:28:21.882Z,97354.41
2022-07-28T16:30:48.745Z,97352.09
2022-07-28T16:33:15.449Z,97349.38
2022-07-28T16:35:42.092Z,97346.53
2022-07-28T16:38:08.762Z,97350.41
2022-07-28T16:40:36.029Z,97345.47
2022-07-28T16:43:06.834Z,97350.91
2022-07-28T16:45:35.340Z,97355.97
2022-07-28T16:48:03.132Z,97359.38
2022-07-28T16:50:31.680Z,97355.47
2022-07-28T16:52:59.125Z,97355.44
2022-07-28T16:55:26.493Z,97351.00
2022-07-28T16:57:53.252Z,97347.72
2022-07-28T17:00:21.507Z,97346.06
2022-07-28T17:02:48.302Z,97350.75
2022-07-28T17:05:14.963Z,97348.28
2022-07-28T17:07:45.266Z,97354.41
2022-07-28T17:10:14.241Z,97355.44
2022-07-28T17:12:41.353Z,97359.13
2022-07-28T17:15:22.154Z,97354.63
2022-07-28T17:17:51.433Z,97354.34
2022-07-28T17:20:19.080Z,97352.19
2022-07-28T17:22:45.720Z,97352.19
2022-07-28T17:27:59.246Z,97348.28
2022-07-28T17:30:26.106Z,97361.59
2022-07-28T17:32:58.049Z,97354.38
2022-07-28T17:35:34.095Z,97354.34
2022-07-28T17:38:03.402Z,97351.91
2022-07-28T17:40:30.588Z,97348.28
2022-07-28T17:42:57.358Z,97350.44
2022-07-28T17:45:24.385Z,97347.66
2022-07-28T17:47:51.381Z,97357.66
2022-07-28T17:50:18.438Z,97351.31
2022-07-28T17:52:46.204Z,97351.75
2022-07-28T17:55:35.617Z,97349.81
2022-07-28T17:58:27.868Z,97354.72
2022-07-28T18:00:58.503Z,97369.06
2022-07-28T18:03:58.529Z,97361.19
2022-07-28T18:06:23.354Z,97358.75
2022-07-28T18:08:49.974Z,97361.47
2022-07-28T18:11:16.704Z,97363.19
2022-07-28T18:13:45.529Z,97372.44
2022-07-28T18:16:34.442Z,97368.41
2022-07-28T18:19:02.620Z,97372.00
2022-07-28T18:21:29.577Z,97371.28
2022-07-28T18:23:56.318Z,97374.84
2022-07-28T18:26:22.995Z,97367.97
2022-07-28T18:28:49.812Z,97369.97
2022-07-28T18:31:16.874Z,97379.50
2022-07-28T18:33:44.050Z,97380.84
2022-07-28T18:36:10.854Z,97386.88
2022-07-28T18:38:37.651Z,97391.19
2022-07-28T18:41:04.538Z,97389.03
2022-07-28T18:43:31.340Z,97398.00
2022-07-28T18:45:58.149Z,97401.44
2022-07-28T18:48:25.630Z,97407.44
2022-07-28T18:50:52.751Z,97413.50
2022-07-28T18:53:19.421Z,97406.59
2022-07-28T18:55:46.088Z,97407.53
2022-07-28T18:58:12.726Z,97413.19
2022-07-28T19:00:39.638Z,97430.69
2022-07-28T19:03:06.334Z,97425.47
2022-07-28T19:05:36.823Z,97427.84
2022-07-28T19:08:05.289Z,97439.56
2022-07-28T19:10:34.969Z,97436.69
2022-07-28T19:13:01.623Z,97439.59
2022-07-28T19:15:28.272Z,97449.25
2022-07-28T19:18:10.116Z,97450.06
2022-07-28T19:20:44.778Z,97458.69
2022-07-28T19:23:11.634Z,97462.03
2022-07-28T19:25:39.473Z,97463.25
2022-07-28T19:28:06.640Z,97458.13
2022-07-28T19:30:34.148Z,97462.03
2022-07-28T19:33:00.915Z,97455.25
2022-07-28T19:35:27.831Z,97465.66
2022-07-28T19:37:56.624Z,97468.56
2022-07-28T19:40:25.217Z,97468.44
2022-07-28T19:42:52.049Z,97470.84
2022-07-28T19:45:18.869Z,97475.28
2022-07-28T19:47:45.870Z,97480.03
2022-07-28T19:50:16.817Z,97480.72
2022-07-28T19:52:43.458Z,97477.63
2022-07-28T19:55:10.073Z,97482.97
2022-07-28T19:57:36.714Z,97484.91
2022-07-28T20:00:07.423Z,97493.66
2022-07-28T20:02:39.085Z,97485.78
2022-07-28T20:05:07.069Z,97490.94
2022-07-28T20:07:33.851Z,97499.41
2022-07-28T20:10:01.584Z,97498.56
2022-07-28T20:12:31.621Z,97497.97
2022-07-28T20:15:03.750Z,97489.94
2022-07-28T20:17:38.390Z,97500.03
2022-07-28T20:20:12.101Z,97505.41
2022-07-28T20:22:39.951Z,97505.88
2022-07-28T20:25:10.503Z,97504.56
2022-07-28T20:27:40.334Z,97512.91
2022-07-28T20:30:10.059Z,97510.66
2022-07-28T20:32:37.593Z,97503.47
2022-07-28T20:35:05.496Z,97508.59
2022-07-28T20:37:37.150Z,97520.56
2022-07-28T20:40:06.817Z,97514.25
2022-07-28T20:42:33.765Z,97511.25
2022-07-28T20:45:00.426Z,97514.84
2022-07-28T20:47:27.883Z,97521.66
2022-07-28T20:49:55.248Z,97529.19
2022-07-28T20:52:21.987Z,97521.88
2022-07-28T20:54:53.798Z,97524.91
2022-07-28T20:57:21.883Z,97526.31
2022-07-28T20:59:51.428Z,97523.25
2022-07-28T21:02:19.321Z,97520.88
2022-07-28T21:04:46.053Z,97519.19
2022-07-28T21:07:18.069Z,97519.50
2022-07-28T21:10:06.056Z,97514.69
2022-07-28T21:12:33.840Z,97518.44
2022-07-28T21:15:00.630Z,97520.56
2022-07-28T21:17:27.298Z,97512.69
2022-07-28T21:19:53.874Z,97511.69
2022-07-28T21:22:23.025Z,97506.75
2022-07-28T21:24:55.057Z,97510.28
2022-07-28T21:27:23.025Z,97509.53
2022-07-28T21:29:49.788Z,97508.91
2022-07-28T21:32:16.479Z,97499.47
2022-07-28T21:34:43.131Z,97499.16
2022-07-28T21:37:11.612Z,97504.41
2022-07-28T21:39:39.124Z,97494.69
2022-07-28T21:42:08.518Z,97498.72
2022-07-28T21:44:38.794Z,97502.84
2022-07-28T21:47:05.541Z,97511.69
2022-07-28T21:49:32.550Z,97511.88
2022-07-28T21:51:59.586Z,97514.91
2022-07-28T21:54:26.650Z,97506.66
2022-07-28T21:56:53.413Z,97506.59
2022-07-28T21:59:20.051Z,97509.72
2022-07-28T22:01:46.758Z,97509.34
2022-07-28T22:04:13.935Z,97515.28
2022-07-28T22:06:40.870Z,97524.00
2022-07-28T22:09:13.315Z,97521.84
2022-07-28T22:11:39.976Z,97527.59
2022-07-28T22:14:06.876Z,97531.84
2022-07-28T22:16:33.547Z,97530.38
2022-07-28T22:19:00.195Z,97527.19
2022-07-28T22:21:26.860Z,97518.69
2022-07-28T22:23:53.471Z,97519.47
2022-07-28T22:26:20.106Z,97520.53
2022-07-28T22:28:46.788Z,97518.63
2022-07-28T22:31:13.548Z,97518.25
2022-07-28T22:33:40.449Z,97510.63
2022-07-28T22:36:08.876Z,97511.38
2022-07-28T22:38:36.050Z,97513.22
2022-07-28T22:41:02.833Z,97506.94
2022-07-28T22:43:32.193Z,97516.19
2022-07-28T22:45:59.065Z,97515.66
2022-07-28T22:48:25.727Z,97509.56
2022-07-28T22:50:52.397Z,97512.88
2022-07-28T22:53:19.085Z,97510.56
2022-07-28T22:55:45.704Z,97513.31
2022-07-28T22:58:12.508Z,97519.72
2022-07-28T23:00:39.185Z,97512.56
2022-07-28T23:03:05.909Z,97518.63
2022-07-28T23:05:33.770Z,97512.56
2022-07-28T23:08:00.398Z,97508.75
2022-07-28T23:10:27.113Z,97513.88
2022-07-28T23:12:57.217Z,97522.06
2022-07-28T23:15:40.966Z,97520.47
2022-07-28T23:18:11.862Z,97510.19
2022-07-28T23:20:39.397Z,97515.34
2022-07-28T23:23:06.276Z,97514.91
2022-07-28T23:25:33.602Z,97523.72
2022-07-28T23:28:00.601Z,97514.06
2022-07-28T23:30:27.244Z,97512.16
2022-07-28T23:32:54.642Z,97508.91
2022-07-28T23:35:21.370Z,97506.41
2022-07-28T23:37:48.147Z,97502.69
2022-07-28T23:40:14.917Z,97505.00
2022-07-28T23:42:41.573Z,97500.19
2022-07-28T23:45:09.137Z,97503.88
2022-07-28T23:47:35.838Z,97499.91
2022-07-28T23:50:03.973Z,97493.53
2022-07-28T23:52:30.660Z,97484.84
2022-07-28T23:54:57.261Z,97493.06
2022-07-28T23:57:23.902Z,97497.94
2022-07-28T23:59:50.782Z,97502.63
